Аэропорт: Абакан. Абакан

ICAO: UNAA

METAR:
2019-09-21 15:30:00
UNAA 211530Z 00000MPS 9000 NSC 07/06 Q1023 R02/090065 NOSIG RMK QFE745
METAR:
2019-09-21 13:55:00
TAF UNAA 211355Z 2115/2215 03003MPS 3100 BR SCT025CB TEMPO 2118/2202 0300 FG FM220300 11003G10MPS 9999 SCT030